Time;durP1;ratioP1;P1;durP2;ratioP2;P2;SDS_P1;SDS_P2;PMS_P1;PMS_P2;Temp;Humidity;BMP_temperature;BMP_pressure;BME280_temperature;BME280_humidity;BME280_pressure;Samples;Min_cycle;Max_cycle;Signal;HPM_P1;HPM_P2
2022/12/16 00:01:25;;;;;;;5.60;2.97;;;-3.10;99.90;;;;;;4950244;28;20046;-68
2022/12/16 00:03:54;;;;;;;4.70;3.85;;;-3.20;99.90;;;;;;4967604;28;20039;-68
2022/12/16 00:06:21;;;;;;;6.85;4.78;;;-3.20;99.90;;;;;;4967202;28;20111;-68
2022/12/16 00:08:47;;;;;;;12.65;5.45;;;-3.20;99.90;;;;;;4945532;28;20559;-68
2022/12/16 00:11:13;;;;;;;7.03;5.22;;;-3.20;99.90;;;;;;4956699;28;20035;-68
2022/12/16 00:13:39;;;;;;;6.38;2.78;;;-3.30;99.90;;;;;;4964631;28;20039;-69
2022/12/16 00:16:12;;;;;;;4.85;3.92;;;-3.30;99.90;;;;;;4931950;28;20066;-68
2022/12/16 00:18:39;;;;;;;5.70;3.08;;;-3.20;99.90;;;;;;4940912;28;20522;-68
2022/12/16 00:21:06;;;;;;;8.00;4.10;;;-3.20;99.90;;;;;;4953970;29;20107;-68
2022/12/16 00:23:33;;;;;;;2.03;1.83;;;-3.20;99.90;;;;;;4968162;28;20034;-68
2022/12/16 00:25:59;;;;;;;4.80;4.07;;;-3.10;99.90;;;;;;4950441;28;20135;-68
2022/12/16 00:28:25;;;;;;;5.82;3.28;;;-3.20;99.90;;;;;;4973736;28;20034;-68
2022/12/16 00:30:54;;;;;;;9.00;5.50;;;-3.20;99.90;;;;;;4945468;29;20510;-68
2022/12/16 00:33:22;;;;;;;7.35;3.95;;;-3.20;99.90;;;;;;4946626;29;20046;-68
2022/12/16 00:35:48;;;;;;;7.55;3.35;;;-3.20;99.90;;;;;;4945832;28;20475;-68
2022/12/16 00:38:15;;;;;;;7.55;4.85;;;-3.20;99.90;;;;;;4953560;28;20043;-69
2022/12/16 00:40:41;;;;;;;6.63;3.15;;;-3.20;99.90;;;;;;4945370;28;20120;-69
2022/12/16 00:43:07;;;;;;;10.80;4.45;;;-3.30;99.90;;;;;;4953211;28;20406;-68
2022/12/16 00:45:33;;;;;;;12.80;4.43;;;-3.30;99.90;;;;;;4963654;28;20555;-69
2022/12/16 00:47:59;;;;;;;6.13;2.67;;;-3.30;99.90;;;;;;4953010;29;20039;-69
2022/12/16 00:50:25;;;;;;;9.70;4.22;;;-3.30;99.90;;;;;;4945224;29;20034;-69
2022/12/16 00:52:51;;;;;;;6.90;2.70;;;-3.30;99.90;;;;;;4962785;28;20035;-69
2022/12/16 00:55:17;;;;;;;4.20;2.95;;;-3.30;99.90;;;;;;4965804;28;20427;-68
2022/12/16 00:57:44;;;;;;;7.43;4.45;;;-3.40;99.90;;;;;;4956186;28;20038;-69
2022/12/16 01:00:13;;;;;;;12.05;5.15;;;-3.40;99.90;;;;;;4965752;28;20027;-69
2022/12/16 01:02:44;;;;;;;12.20;5.40;;;-3.40;99.90;;;;;;4934924;28;20043;-68
2022/12/16 01:05:13;;;;;;;8.80;3.72;;;-3.40;99.90;;;;;;4951205;29;20050;-69
2022/12/16 01:07:39;;;;;;;5.57;2.60;;;-3.40;99.90;;;;;;4944433;28;20105;-69
2022/12/16 01:10:06;;;;;;;6.95;3.45;;;-3.40;99.90;;;;;;4965704;28;20471;-69
2022/12/16 01:12:34;;;;;;;7.63;4.03;;;-3.40;99.90;;;;;;4983117;23;20059;-66
2022/12/16 01:15:00;;;;;;;8.70;3.70;;;-3.50;99.90;;;;;;4956894;28;20025;-66
2022/12/16 01:17:26;;;;;;;6.13;4.13;;;-3.50;99.90;;;;;;4955694;28;20393;-67
2022/12/16 01:19:53;;;;;;;10.23;5.32;;;-3.50;99.90;;;;;;4964315;28;20039;-67
2022/12/16 01:22:20;;;;;;;4.03;3.63;;;-3.50;99.90;;;;;;4972185;28;20023;-67
2022/12/16 01:24:46;;;;;;;7.82;3.65;;;-3.50;99.90;;;;;;4973151;28;20031;-66
2022/12/16 01:27:13;;;;;;;5.90;4.15;;;-3.50;99.90;;;;;;4970834;28;20034;-67
2022/12/16 01:29:39;;;;;;;8.15;4.07;;;-3.50;99.90;;;;;;4972587;28;20066;-67
2022/12/16 01:32:05;;;;;;;5.72;3.97;;;-3.60;99.90;;;;;;4971832;28;20114;-67
2022/12/16 01:34:31;;;;;;;9.65;5.20;;;-3.60;99.90;;;;;;4973044;28;20022;-67
2022/12/16 01:36:57;;;;;;;13.32;7.80;;;-3.60;99.90;;;;;;4972682;28;20109;-67
2022/12/16 01:39:25;;;;;;;7.03;4.30;;;-3.60;99.90;;;;;;4972725;28;20026;-67
2022/12/16 01:41:51;;;;;;;6.47;3.88;;;-3.70;99.90;;;;;;4936937;29;20035;-66
2022/12/16 01:44:21;;;;;;;20.98;6.20;;;-3.70;99.90;;;;;;4947460;28;20069;-66
2022/12/16 01:46:50;;;;;;;;;;;-3.80;99.90;;;;;;4954220;29;20077;-67
2022/12/16 01:49:36;;;;;;;6.22;3.40;;;-3.80;99.90;;;;;;4971752;28;19917;-66
2022/12/16 01:52:08;;;;;;;4.13;2.72;;;-3.80;99.90;;;;;;4953630;28;20042;-66
2022/12/16 01:54:43;;;;;;;5.30;4.57;;;-3.80;99.90;;;;;;4972633;28;20022;-66
2022/12/16 01:57:16;;;;;;;3.10;2.35;;;-3.80;99.90;;;;;;4970812;28;20054;-67
2022/12/16 01:59:46;;;;;;;9.38;4.32;;;-3.90;99.90;;;;;;4947776;28;20031;-66
2022/12/16 02:02:12;;;;;;;4.20;3.03;;;-3.90;99.90;;;;;;4954294;28;20038;-66
2022/12/16 02:05:19;;;;;;;8.13;5.22;;;-3.90;99.90;;;;;;4970385;28;20034;-66
2022/12/16 02:07:24;;;;;;;6.40;3.75;;;-4.00;99.90;;;;;;4948815;28;20026;-66
2022/12/16 02:09:50;;;;;;;10.57;5.63;;;-4.00;99.90;;;;;;4972406;28;20054;-67
2022/12/16 02:12:39;;;;;;;6.25;3.65;;;-4.10;99.90;;;;;;4970616;28;20395;-67
2022/12/16 02:15:40;;;;;;;4.43;2.45;;;-4.10;99.90;;;;;;4962592;28;20031;-69
2022/12/16 02:18:36;;;;;;;8.32;3.95;;;-4.10;99.90;;;;;;4946747;28;20096;-67
2022/12/16 02:21:41;;;;;;;3.83;3.42;;;-4.10;99.90;;;;;;4964954;28;20062;-67
2022/12/16 02:24:21;;;;;;;3.75;3.05;;;-4.20;99.90;;;;;;4971351;28;20483;-66
2022/12/16 02:27:26;;;;;;;4.45;3.88;;;-4.10;99.90;;;;;;4952221;28;20238;-66
2022/12/16 02:30:22;;;;;;;2.67;2.40;;;-4.10;99.90;;;;;;4943743;29;20031;-66
2022/12/16 02:33:30;;;;;;;3.70;2.90;;;-4.20;99.90;;;;;;4958703;28;20066;-66
2022/12/16 02:36:37;;;;;;;8.13;3.40;;;-4.20;99.90;;;;;;4964567;28;20095;-67
2022/12/16 02:39:21;;;;;;;4.25;2.50;;;-4.20;99.90;;;;;;4971172;28;20027;-67
2022/12/16 02:42:11;;;;;;;11.05;3.13;;;-4.30;99.90;;;;;;4944031;29;20035;-66
2022/12/16 02:44:56;;;;;;;4.00;3.30;;;-4.40;99.90;;;;;;4976722;28;20503;-67
2022/12/16 02:47:23;;;;;;;5.63;3.00;;;-4.40;99.90;;;;;;4969465;28;20085;-66
2022/12/16 02:49:52;;;;;;;22.50;7.10;;;-4.40;99.90;;;;;;4971845;28;20533;-67
2022/12/16 02:52:25;;;;;;;4.85;3.05;;;-4.40;99.90;;;;;;4968981;28;20043;-67
2022/12/16 02:54:58;;;;;;;3.90;2.95;;;-4.40;99.90;;;;;;4947152;28;20482;-67
2022/12/16 02:57:53;;;;;;;4.05;2.65;;;-4.50;99.90;;;;;;4954191;28;20039;-66
2022/12/16 03:00:22;;;;;;;6.78;2.90;;;-4.50;99.90;;;;;;4955049;28;20111;-67
2022/12/16 03:03:01;;;;;;;7.28;2.88;;;-4.40;99.90;;;;;;4953265;28;20109;-67
2022/12/16 03:05:49;;;;;;;9.80;2.78;;;-4.40;99.90;;;;;;4962521;28;20414;-67
2022/12/16 03:08:32;;;;;;;2.03;1.83;;;-4.40;99.90;;;;;;4961858;28;20031;-67
2022/12/16 03:11:07;;;;;;;4.30;3.50;;;-4.50;99.90;;;;;;4956277;28;20121;-67
2022/12/16 03:13:41;;;;;;;2.95;2.65;;;-4.50;99.90;;;;;;4959406;28;20022;-67
2022/12/16 03:16:11;;;;;;;7.50;4.55;;;-4.60;99.90;;;;;;4969947;28;20054;-68
2022/12/16 03:18:45;;;;;;;5.88;2.88;;;-4.60;99.90;;;;;;4959067;28;20039;-67
2022/12/16 03:21:13;;;;;;;2.33;1.80;;;-4.60;99.90;;;;;;4956377;28;20031;-67
2022/12/16 03:23:59;;;;;;;3.47;2.92;;;-4.60;99.90;;;;;;4953242;28;20426;-67
2022/12/16 03:26:44;;;;;;;18.23;5.57;;;-4.60;99.90;;;;;;4971507;28;20042;-67
2022/12/16 03:29:25;;;;;;;7.90;3.47;;;-4.70;99.90;;;;;;4970505;28;20150;-67
2022/12/16 03:31:57;;;;;;;6.32;3.25;;;-4.70;99.90;;;;;;4969766;28;20122;-67
2022/12/16 03:34:48;;;;;;;4.18;2.67;;;-4.80;99.90;;;;;;4971237;28;20069;-67
2022/12/16 03:37:14;;;;;;;7.77;4.10;;;-4.80;99.90;;;;;;4953792;28;20045;-68
2022/12/16 03:39:51;;;;;;;7.93;5.63;;;-4.80;99.90;;;;;;4971595;28;20046;-67
2022/12/16 03:42:17;;;;;;;8.23;2.20;;;-4.90;99.90;;;;;;4969188;28;20088;-67
2022/12/16 03:44:45;;;;;;;9.13;3.67;;;-4.90;99.90;;;;;;4946250;28;20377;-67
2022/12/16 03:47:12;;;;;;;7.18;3.70;;;-4.90;99.90;;;;;;4970293;28;20031;-67
2022/12/16 03:49:38;;;;;;;5.68;3.10;;;-4.90;99.90;;;;;;4930175;28;20035;-67
2022/12/16 03:52:04;;;;;;;3.15;1.90;;;-4.90;99.90;;;;;;4970957;28;20042;-67
2022/12/16 03:54:30;;;;;;;5.15;4.57;;;-5.00;99.90;;;;;;4949583;28;20019;-67
2022/12/16 03:56:56;;;;;;;3.78;3.38;;;-5.00;99.90;;;;;;4974142;28;20114;-67
2022/12/16 03:59:22;;;;;;;2.40;1.27;;;-5.00;99.90;;;;;;4974462;28;20027;-67
2022/12/16 04:01:48;;;;;;;3.13;2.50;;;-5.00;99.90;;;;;;4938584;29;20039;-67
2022/12/16 04:04:15;;;;;;;4.30;3.53;;;-5.00;99.90;;;;;;4949736;29;20067;-68
2022/12/16 04:06:41;;;;;;;5.45;2.75;;;-5.00;99.90;;;;;;4956306;28;20030;-67
2022/12/16 04:09:07;;;;;;;8.60;3.55;;;-5.00;99.90;;;;;;4951076;28;20031;-67
2022/12/16 04:25:33;;;;;;;2.67;2.30;;;-5.20;99.90;;;;;;4964028;28;20026;-67
2022/12/16 04:27:58;;;;;;;7.32;2.63;;;-5.30;99.90;;;;;;4956327;28;20046;-67
2022/12/16 04:30:26;;;;;;;8.40;4.78;;;-5.20;99.90;;;;;;4974304;28;20023;-67
